Time;durP1;ratioP1;P1;durP2;ratioP2;P2;SDS_P1;SDS_P2;PMS_P1;PMS_P2;Temp;Humidity;BMP_temperature;BMP_pressure;BME280_temperature;BME280_humidity;BME280_pressure;Samples;Min_cycle;Max_cycle;Signal;HPM_P1;HPM_P2
2023/12/30 00:00:32;;;;;;;14.50;2.30;;;9.60;99.90;;;9.63;77.59;99860.19;4989263;28;20129;-89
2023/12/30 00:02:59;;;;;;;12.52;2.65;;;9.60;99.90;;;9.61;77.28;99867.56;4994830;28;20101;-89
2023/12/30 00:05:28;;;;;;;16.02;2.55;;;9.70;99.90;;;9.65;77.16;99874.09;5010397;28;20046;-90
2023/12/30 00:07:56;;;;;;;17.88;2.78;;;9.70;99.90;;;9.66;77.40;99872.25;5013743;28;20440;-89
2023/12/30 00:10:23;;;;;;;13.57;2.85;;;9.70;99.90;;;9.59;77.21;99877.63;4963058;28;20465;-89
2023/12/30 00:12:53;;;;;;;18.52;2.45;;;9.60;99.90;;;9.58;77.48;99881.34;5011950;28;20053;-90
2023/12/30 00:15:20;;;;;;;13.70;2.45;;;9.60;99.90;;;9.46;77.41;99883.06;4946862;28;20116;-89
2023/12/30 00:17:48;;;;;;;10.38;2.22;;;9.60;99.90;;;9.53;77.16;99886.50;4995608;28;20058;-89
2023/12/30 00:20:16;;;;;;;17.60;2.47;;;9.60;99.90;;;9.54;77.48;99890.78;4995766;28;20108;-90
2023/12/30 00:22:46;;;;;;;11.77;2.83;;;9.60;99.90;;;9.53;77.17;99881.19;4979039;28;20486;-90
2023/12/30 00:25:14;;;;;;;21.17;2.83;;;9.60;99.90;;;9.55;77.32;99887.91;4996762;28;20058;-89
2023/12/30 00:27:42;;;;;;;17.27;2.65;;;9.60;99.90;;;9.54;77.07;99894.28;4999530;28;20089;-89
2023/12/30 00:30:13;;;;;;;14.85;2.40;;;9.60;99.90;;;9.55;77.21;99897.75;4997736;28;20536;-90
2023/12/30 00:32:41;;;;;;;12.57;2.72;;;9.60;99.90;;;9.50;76.82;99901.06;5029327;28;20510;-89
2023/12/30 00:35:09;;;;;;;15.02;2.40;;;9.50;99.90;;;9.49;76.67;99899.44;4982550;28;20141;-89
2023/12/30 00:37:37;;;;;;;13.55;2.85;;;9.50;99.90;;;9.51;76.54;99912.50;5014748;28;20514;-89
2023/12/30 00:40:06;;;;;;;14.00;2.88;;;9.50;99.90;;;9.44;76.25;99907.25;4995982;28;20418;-89
2023/12/30 00:42:33;;;;;;;13.70;2.60;;;9.50;99.90;;;9.51;76.91;99909.84;5002463;28;20034;-89
2023/12/30 00:45:01;;;;;;;11.10;2.45;;;9.50;99.90;;;9.53;76.77;99916.59;4978776;28;20050;-89
2023/12/30 00:47:31;;;;;;;14.15;2.63;;;9.50;99.90;;;9.51;76.63;99913.31;4974779;28;20038;-89
2023/12/30 00:49:58;;;;;;;12.95;2.60;;;9.50;99.90;;;9.50;76.38;99927.69;5011214;28;20138;-89
2023/12/30 00:52:27;;;;;;;14.18;2.80;;;9.50;99.90;;;9.58;76.65;99912.47;5014354;28;20037;-89
2023/12/30 00:54:54;;;;;;;13.38;2.55;;;9.50;99.90;;;9.53;76.07;99915.78;5015497;28;20065;-89
2023/12/30 00:57:22;;;;;;;16.33;2.65;;;9.50;99.90;;;9.49;76.64;99917.25;5013858;28;20042;-89
2023/12/30 00:59:50;;;;;;;12.15;2.42;;;9.50;99.90;;;9.44;76.43;99925.88;4998019;28;20050;-89
2023/12/30 01:02:17;;;;;;;14.52;2.88;;;9.50;99.90;;;9.44;76.51;99927.75;5010941;28;20501;-89
2023/12/30 01:04:46;;;;;;;13.77;2.72;;;9.40;99.90;;;9.46;76.40;99931.00;4963099;28;20050;-89
2023/12/30 01:07:15;;;;;;;18.73;2.73;;;9.40;99.90;;;9.41;76.45;99938.81;5011773;28;20092;-89
2023/12/30 01:09:43;;;;;;;14.38;2.42;;;9.50;99.90;;;9.44;76.58;99944.53;4998934;28;20335;-90
2023/12/30 01:12:10;;;;;;;13.65;2.90;;;9.40;99.90;;;9.50;77.11;99948.16;5004587;28;20048;-89
2023/12/30 01:14:38;;;;;;;12.25;2.45;;;9.50;99.90;;;9.44;76.65;99944.53;4981306;28;20448;-89
2023/12/30 01:17:05;;;;;;;14.32;2.72;;;9.40;99.90;;;9.44;76.95;99943.72;5014263;28;20100;-89
2023/12/30 01:19:33;;;;;;;21.45;3.05;;;9.40;99.90;;;9.45;77.18;99950.66;5024758;28;20050;-89
2023/12/30 01:22:02;;;;;;;15.88;2.67;;;9.50;99.90;;;9.47;77.13;99943.28;5015051;28;20041;-89
2023/12/30 01:24:30;;;;;;;11.63;2.10;;;9.50;99.90;;;9.44;76.74;99954.34;4967278;28;20046;-89
2023/12/30 01:26:58;;;;;;;12.27;2.65;;;9.40;99.90;;;9.47;77.14;99951.28;5004735;28;20041;-89
2023/12/30 01:29:28;;;;;;;17.60;3.63;;;9.40;99.90;;;9.52;76.93;99956.75;5010258;28;20042;-89
2023/12/30 01:31:56;;;;;;;17.92;3.00;;;9.40;99.90;;;9.53;76.76;99961.03;5025037;28;20552;-89
2023/12/30 01:34:23;;;;;;;14.10;2.35;;;9.40;99.90;;;9.49;76.24;99965.16;4963680;28;20054;-89
2023/12/30 01:36:51;;;;;;;17.00;3.20;;;9.40;99.90;;;9.47;76.31;99960.06;4995538;28;20097;-89
2023/12/30 01:39:22;;;;;;;17.42;3.17;;;9.40;99.90;;;9.46;76.32;99970.91;4989451;28;20052;-89
2023/12/30 01:41:51;;;;;;;14.52;2.40;;;9.40;99.90;;;9.51;75.97;99971.06;5014101;28;20096;-89
2023/12/30 01:44:19;;;;;;;18.30;3.20;;;9.40;99.90;;;9.44;75.56;99981.78;5018599;28;20050;-89
2023/12/30 01:46:46;;;;;;;11.35;2.30;;;9.30;99.90;;;9.37;76.05;99980.19;4993763;28;20070;-89
2023/12/30 01:49:15;;;;;;;14.98;2.97;;;9.30;99.90;;;9.36;75.67;99982.03;4987937;28;20129;-89
2023/12/30 01:51:42;;;;;;;11.68;2.30;;;9.30;99.90;;;9.36;75.69;99992.69;5011873;28;20054;-89
2023/12/30 01:54:11;;;;;;;15.75;3.35;;;9.20;99.90;;;9.41;75.83;99997.34;5009897;28;20050;-89
2023/12/30 01:56:40;;;;;;;14.65;2.97;;;9.30;99.90;;;9.38;75.62;100003.94;4993731;28;20533;-89
2023/12/30 01:59:08;;;;;;;16.58;3.38;;;9.30;99.90;;;9.35;75.58;100020.31;5010107;28;20046;-89
2023/12/30 02:01:35;;;;;;;16.60;3.03;;;9.20;99.90;;;9.40;76.00;100022.34;5009909;28;20518;-89
2023/12/30 02:04:04;;;;;;;15.57;2.50;;;9.20;99.90;;;9.41;75.65;100022.13;4993490;28;20043;-89
2023/12/30 02:06:31;;;;;;;15.25;3.28;;;9.30;99.90;;;9.38;75.67;100022.56;5009616;28;20049;-89
2023/12/30 02:08:58;;;;;;;15.23;2.75;;;9.20;99.90;;;9.39;75.73;100026.84;5001676;28;20037;-89
2023/12/30 02:11:26;;;;;;;17.52;3.80;;;9.20;99.90;;;9.36;75.41;100013.16;4977912;28;20126;-89
2023/12/30 02:13:57;;;;;;;12.00;3.03;;;9.20;99.90;;;9.39;75.63;100026.03;5009620;28;20564;-89
2023/12/30 02:16:24;;;;;;;15.82;2.65;;;9.20;99.90;;;9.30;74.94;100017.50;4993185;28;20069;-89
2023/12/30 02:18:52;;;;;;;10.93;2.50;;;9.20;99.90;;;9.19;75.87;100005.69;4948054;28;20517;-89
2023/12/30 02:21:19;;;;;;;11.15;2.47;;;9.20;99.90;;;9.19;75.90;100013.69;5009524;28;20038;-89
2023/12/30 02:23:54;;;;;;;13.93;2.53;;;9.10;99.90;;;9.31;76.00;100020.97;5012403;28;20502;-89
2023/12/30 02:26:23;;;;;;;12.00;2.85;;;9.20;99.90;;;9.29;75.38;100018.53;5012120;28;20049;-89
2023/12/30 02:28:50;;;;;;;11.82;2.47;;;9.20;99.90;;;9.27;75.14;100026.75;5021444;28;20073;-89
2023/12/30 02:31:18;;;;;;;13.88;2.45;;;9.20;99.90;;;9.22;75.37;100021.25;4994054;28;20050;-89
2023/12/30 02:33:45;;;;;;;18.52;3.05;;;9.10;99.90;;;9.24;75.21;100021.00;4972976;28;20042;-89
2023/12/30 02:36:12;;;;;;;14.80;2.45;;;9.10;99.90;;;9.16;75.39;100026.56;4995952;28;20050;-89
2023/12/30 02:38:40;;;;;;;16.42;2.78;;;9.10;99.90;;;9.22;75.91;100023.06;4991720;28;20046;-89
2023/12/30 02:41:09;;;;;;;17.70;3.08;;;9.10;99.90;;;9.24;75.71;100029.00;5009036;28;20076;-90
2023/12/30 02:43:54;;;;;;;14.20;2.40;;;9.10;99.90;;;9.28;75.75;100020.38;4976816;28;20050;-89
2023/12/30 02:46:21;;;;;;;13.32;2.72;;;9.10;99.90;;;9.28;75.50;100023.03;4979655;28;20043;-89
2023/12/30 02:48:49;;;;;;;20.00;2.95;;;9.10;99.90;;;9.14;76.11;100028.66;5001606;28;20042;-89
2023/12/30 02:51:17;;;;;;;13.88;2.88;;;9.10;99.90;;;9.18;76.12;100022.69;4997660;28;20050;-89
2023/12/30 02:53:44;;;;;;;15.80;2.90;;;9.10;99.90;;;9.08;76.02;100034.78;4992842;28;20125;-89
2023/12/30 02:56:21;;;;;;;18.20;3.25;;;9.00;99.90;;;8.99;76.41;100036.91;4993877;28;20054;-89
2023/12/30 02:58:51;;;;;;;17.85;2.95;;;9.00;99.90;;;9.03;76.99;100030.13;4997629;28;20053;-89
2023/12/30 03:01:18;;;;;;;18.83;2.85;;;9.00;99.90;;;9.11;76.75;100034.38;5011559;28;20053;-89
2023/12/30 03:03:46;;;;;;;12.52;2.85;;;9.00;99.90;;;9.14;76.57;100034.78;5028530;28;20042;-89
2023/12/30 03:06:15;;;;;;;13.23;2.42;;;9.00;99.90;;;9.16;76.63;100035.38;5012204;28;20050;-89
2023/12/30 03:08:43;;;;;;;21.40;3.20;;;9.00;99.90;;;9.12;76.46;100047.47;4994167;28;20096;-89
2023/12/30 03:11:11;;;;;;;17.55;2.85;;;9.00;99.90;;;9.11;76.79;100035.19;5012593;28;20091;-89
2023/12/30 03:13:41;;;;;;;12.73;2.33;;;9.00;99.90;;;9.14;76.73;100044.59;4996287;28;20046;-89
2023/12/30 03:16:10;;;;;;;16.42;3.13;;;9.00;99.90;;;9.08;76.24;100034.78;5027939;28;20038;-89
2023/12/30 03:18:39;;;;;;;17.27;2.88;;;9.00;99.90;;;9.04;76.96;100047.72;4992896;28;20046;-89
2023/12/30 03:21:08;;;;;;;19.77;2.97;;;9.00;99.90;;;9.11;76.86;100035.19;4993280;28;20506;-89
2023/12/30 03:23:36;;;;;;;15.65;3.35;;;9.00;99.90;;;9.13;76.83;100040.31;4993542;28;20048;-89
2023/12/30 03:26:07;;;;;;;19.30;2.72;;;9.10;99.90;;;9.14;76.51;100045.41;4976693;28;20050;-89
2023/12/30 03:28:35;;;;;;;13.57;2.38;;;9.00;99.90;;;9.19;76.51;100039.47;5009756;28;20097;-89
2023/12/30 03:31:06;;;;;;;14.80;2.75;;;9.10;99.90;;;9.15;76.12;100039.06;5000546;28;20065;-89
2023/12/30 03:33:34;;;;;;;16.90;3.00;;;9.00;99.90;;;9.07;76.17;100046.47;5011599;28;20536;-89
2023/12/30 03:36:02;;;;;;;12.55;3.10;;;9.00;99.90;;;9.08;75.89;100043.63;4996304;28;20100;-89
2023/12/30 03:38:29;;;;;;;15.98;3.15;;;9.00;99.90;;;9.03;75.81;100044.25;4981056;28;20050;-90
2023/12/30 03:40:57;;;;;;;14.00;3.10;;;9.00;99.90;;;9.08;76.29;100048.09;5015295;28;20074;-89
2023/12/30 03:43:24;;;;;;;20.73;3.08;;;9.00;99.90;;;9.10;76.23;100044.22;5016944;28;20046;-89
2023/12/30 03:45:52;;;;;;;15.27;2.75;;;9.20;99.90;;;9.08;76.15;100045.44;5008464;28;20042;-89
2023/12/30 03:48:21;;;;;;;16.60;2.78;;;9.00;99.90;;;9.16;76.38;100048.66;5012406;28;20524;-89
2023/12/30 03:50:48;;;;;;;15.77;3.00;;;9.10;99.90;;;9.18;76.31;100048.47;5005907;28;20050;-89
2023/12/30 03:53:18;;;;;;;19.55;3.83;;;9.00;99.90;;;9.19;76.25;100042.94;5016806;28;20070;-89
2023/12/30 03:55:46;;;;;;;18.98;2.70;;;9.00;99.90;;;9.19;76.62;100042.94;5015653;28;20042;-89
2023/12/30 03:58:13;;;;;;;19.60;2.78;;;9.10;99.90;;;9.14;76.76;100049.94;5015512;28;20050;-89
2023/12/30 04:00:42;;;;;;;19.25;3.08;;;9.10;99.90;;;9.17;76.89;100052.97;5014856;28;20042;-89
2023/12/30 04:03:09;;;;;;;16.30;2.83;;;9.10;99.90;;;9.15;76.77;100051.56;5011438;28;20088;-89
2023/12/30 04:05:38;;;;;;;20.30;3.17;;;9.10;99.90;;;9.17;77.07;100055.63;4995588;28;20065;-89
2023/12/30 04:08:06;;;;;;;15.05;2.67;;;9.10;99.90;;;9.18;76.83;100059.94;4995797;28;20138;-89
2023/12/30 04:10:34;;;;;;;20.52;3.20;;;9.10;99.90;;;9.12;76.97;100063.41;4980738;28;20100;-89
2023/12/30 04:13:02;;;;;;;13.70;2.58;;;9.10;99.90;;;9.09;77.16;100049.75;4996509;28;20101;-89
2023/12/30 04:15:29;;;;;;;16.35;2.55;;;9.10;99.90;;;9.01;77.39;100061.44;4980405;28;20047;-89
2023/12/30 04:17:57;;;;;;;14.95;2.50;;;9.10;99.90;;;8.96;77.38;100066.56;5010721;28;20054;-89
2023/12/30 04:20:24;;;;;;;13.82;2.20;;;9.00;99.90;;;9.04;77.25;100069.00;4966654;28;20038;-89
2023/12/30 04:22:55;;;;;;;19.48;3.25;;;9.10;99.90;;;8.97;77.29;100071.66;4995333;28;20077;-89
2023/12/30 04:25:23;;;;;;;13.75;2.83;;;9.00;99.90;;;8.96;77.17;100063.91;4995812;28;20050;-89
2023/12/30 04:27:51;;;;;;;16.85;2.63;;;9.00;99.90;;;8.93;77.03;100066.97;5011666;28;20049;-89
2023/12/30 04:30:18;;;;;;;10.43;2.40;;;9.00;99.90;;;8.91;77.33;100085.00;5010275;28;20097;-89
2023/12/30 04:32:45;;;;;;;14.02;2.97;;;9.00;99.90;;;8.94;77.32;100079.28;5017356;28;20054;-89
2023/12/30 04:35:13;;;;;;;19.30;3.15;;;9.00;99.90;;;8.92;77.09;100070.66;4995202;28;20065;-89
2023/12/30 04:37:40;;;;;;;14.68;3.45;;;9.00;99.90;;;8.88;76.99;100077.44;4979056;28;20128;-89
2023/12/30 04:40:11;;;;;;;22.80;3.13;;;9.00;99.90;;;8.85;76.73;100073.38;5024136;28;20065;-89
2023/12/30 04:42:38;;;;;;;15.68;3.00;;;9.00;99.90;;;8.84;77.39;100084.22;4981617;28;20053;-89
2023/12/30 04:45:12;;;;;;;16.00;2.78;;;8.90;99.90;;;8.96;77.36;100087.84;5014724;28;20072;-89
2023/12/30 04:47:41;;;;;;;16.33;3.40;;;8.90;99.90;;;8.92;76.89;100083.97;4984098;28;20124;-89
2023/12/30 04:50:09;;;;;;;16.83;2.80;;;8.90;99.90;;;8.95;77.18;100080.91;5001319;28;20050;-89
2023/12/30 04:52:37;;;;;;;15.85;2.92;;;8.90;99.90;;;8.97;77.11;100086.81;4975780;28;20053;-89
2023/12/30 04:55:06;;;;;;;12.07;2.25;;;9.00;99.90;;;9.05;77.04;100083.94;5014295;28;20041;-89
2023/12/30 04:57:35;;;;;;;13.70;2.92;;;9.00;99.90;;;9.07;76.91;100087.19;5014307;28;20038;-89
2023/12/30 05:00:04;;;;;;;16.63;2.83;;;9.00;99.90;;;9.09;76.83;100090.47;5023599;28;20053;-89
2023/12/30 05:02:31;;;;;;;22.90;2.67;;;9.00;99.90;;;9.09;76.43;100081.66;4982148;28;20468;-89
2023/12/30 05:04:59;;;;;;;16.48;2.78;;;9.00;99.90;;;9.05;76.83;100089.25;4997781;28;20520;-89
2023/12/30 05:07:27;;;;;;;18.20;3.03;;;9.00;99.90;;;9.13;76.72;100089.03;5015376;28;20050;-89
2023/12/30 05:09:54;;;;;;;17.52;3.13;;;9.10;99.90;;;9.08;76.20;100086.19;5029421;28;20105;-89
2023/12/30 05:12:23;;;;;;;12.88;2.38;;;9.00;99.90;;;9.05;75.73;100083.13;5014918;28;20129;-89
2023/12/30 05:15:04;;;;;;;16.33;2.58;;;8.90;99.90;;;9.02;75.86;100095.78;4998537;28;20050;-89
2023/12/30 05:17:33;;;;;;;14.15;2.42;;;8.90;99.90;;;9.09;75.95;100089.66;5013662;28;20042;-89
2023/12/30 05:20:01;;;;;;;20.67;2.72;;;9.00;99.90;;;9.11;75.84;100101.69;4985732;28;20051;-89
2023/12/30 05:22:28;;;;;;;20.80;4.18;;;8.90;99.90;;;8.99;75.51;100104.22;5010606;28;20061;-89
2023/12/30 05:24:56;;;;;;;15.98;2.70;;;8.90;99.90;;;8.93;76.36;100110.38;4962398;28;20049;-89
2023/12/30 05:27:23;;;;;;;15.88;3.58;;;8.90;99.90;;;8.95;76.08;100107.50;4994066;28;20042;-89
2023/12/30 05:29:55;;;;;;;20.80;3.47;;;8.80;99.90;;;8.99;76.15;100111.38;4997528;28;20071;-89
2023/12/30 05:32:22;;;;;;;12.57;2.70;;;8.90;99.90;;;8.97;75.86;100114.22;5007201;28;20030;-89
2023/12/30 05:34:50;;;;;;;17.17;3.22;;;8.80;99.90;;;8.96;75.38;100120.56;4977892;28;20035;-89
2023/12/30 05:37:18;;;;;;;18.52;2.80;;;8.90;99.90;;;8.95;75.91;100116.28;4995463;28;20572;-89
2023/12/30 05:39:45;;;;;;;15.23;3.15;;;8.80;99.90;;;8.97;75.67;100121.38;4986558;28;20059;-89
2023/12/30 05:42:13;;;;;;;14.98;2.95;;;8.80;99.90;;;8.86;75.51;100122.03;5014547;28;20066;-89
2023/12/30 05:44:41;;;;;;;18.58;3.22;;;8.80;99.90;;;8.86;75.91;100122.84;4997244;28;20042;-89
2023/12/30 05:47:10;;;;;;;12.98;2.83;;;8.80;99.90;;;8.87;76.12;100123.66;4994644;28;20048;-89
2023/12/30 05:49:40;;;;;;;13.35;2.70;;;8.70;99.90;;;8.94;75.94;100122.63;4997117;28;20097;-89
2023/12/30 05:52:08;;;;;;;14.55;2.70;;;8.80;99.90;;;8.99;75.86;100135.31;4985369;28;20050;-89
2023/12/30 05:54:36;;;;;;;17.75;3.03;;;8.80;99.90;;;9.02;75.70;100132.22;4993803;28;20162;-89
2023/12/30 05:57:04;;;;;;;12.85;2.28;;;8.80;99.90;;;9.04;75.39;100130.19;5013805;28;20057;-89
2023/12/30 05:59:31;;;;;;;18.45;2.50;;;8.80;99.90;;;9.03;75.55;100134.69;5013560;28;20073;-89
2023/12/30 06:01:59;;;;;;;15.63;2.75;;;8.80;99.90;;;9.02;75.36;100129.56;4997015;28;20092;-89
2023/12/30 06:04:28;;;;;;;19.65;3.65;;;8.80;99.90;;;9.02;75.24;100132.22;4996715;28;20084;-89
2023/12/30 06:06:56;;;;;;;14.40;3.00;;;8.80;99.90;;;9.00;75.41;100143.06;5029929;28;20464;-89
2023/12/30 06:09:24;;;;;;;17.60;3.25;;;8.70;99.90;;;9.02;75.62;100148.19;5012077;28;20084;-89
2023/12/30 06:11:51;;;;;;;17.52;3.63;;;8.80;99.90;;;9.05;75.44;100158.41;5013359;28;20068;-89
2023/12/30 06:14:18;;;;;;;14.10;2.80;;;8.80;99.90;;;9.07;75.31;100156.34;4994483;28;20078;-89
2023/12/30 06:16:46;;;;;;;15.48;3.45;;;8.80;99.90;;;9.07;75.61;100159.00;4993194;28;20054;-89
2023/12/30 06:19:14;;;;;;;12.63;2.53;;;8.90;99.90;;;9.02;75.87;100158.81;5012752;28;20061;-89
2023/12/30 06:21:43;;;;;;;18.35;3.65;;;8.80;99.90;;;9.03;75.65;100155.16;5013959;28;20136;-89
2023/12/30 06:24:11;;;;;;;13.40;3.30;;;8.80;99.90;;;9.02;75.95;100159.63;4995234;28;20096;-89
2023/12/30 06:26:38;;;;;;;13.43;2.67;;;8.80;99.90;;;9.01;75.89;100167.81;5025897;28;20068;-89
2023/12/30 06:29:06;;;;;;;15.20;3.63;;;8.80;99.90;;;9.01;76.19;100167.81;5009241;28;20042;-89
2023/12/30 06:31:34;;;;;;;20.05;3.30;;;8.80;99.90;;;8.95;76.20;100169.47;4992661;28;20137;-89
2023/12/30 06:34:01;;;;;;;22.05;3.17;;;8.80;99.90;;;8.96;76.39;100165.78;4994222;28;20042;-89
2023/12/30 06:36:29;;;;;;;18.45;2.65;;;8.80;99.90;;;8.98;76.15;100165.59;4993386;28;20050;-89
2023/12/30 06:38:57;;;;;;;17.08;3.53;;;8.80;99.90;;;8.97;76.25;100171.91;5009223;28;20046;-88
2023/12/30 06:41:25;;;;;;;18.10;3.17;;;8.80;99.90;;;8.94;76.19;100173.16;5026884;28;20069;-89
2023/12/30 06:43:53;;;;;;;25.63;3.08;;;8.80;99.90;;;8.97;76.47;100171.91;5013132;28;20046;-89
2023/12/30 06:46:20;;;;;;;16.50;2.80;;;8.80;99.90;;;9.03;76.45;100171.13;4997422;28;20137;-89
2023/12/30 06:48:48;;;;;;;17.13;2.83;;;8.90;99.90;;;9.03;76.14;100169.28;5014706;28;20069;-89
2023/12/30 06:51:16;;;;;;;15.98;2.95;;;8.80;99.90;;;8.99;76.46;100185.84;5009035;28;20053;-89
2023/12/30 06:53:44;;;;;;;21.23;3.05;;;8.80;99.90;;;9.00;76.26;100190.13;5010882;28;20049;-89
2023/12/30 06:56:13;;;;;;;20.25;2.90;;;8.80;99.90;;;8.88;76.70;100194.44;5009834;28;20049;-89
2023/12/30 06:58:41;;;;;;;18.98;2.90;;;8.70;99.90;;;8.93;76.79;100189.31;5014657;28;20046;-89
2023/12/30 07:01:09;;;;;;;14.23;2.75;;;8.80;99.90;;;8.90;76.79;100193.22;5014489;28;20049;-89
2023/12/30 07:03:36;;;;;;;20.15;3.00;;;8.80;99.90;;;8.94;76.94;100190.97;4997662;28;20498;-89
2023/12/30 07:06:04;;;;;;;14.48;2.88;;;8.80;99.90;;;8.94;76.94;100194.44;4994454;28;20105;-89
2023/12/30 07:08:31;;;;;;;17.73;3.35;;;8.80;99.90;;;9.01;76.92;100197.09;4995540;28;20498;-89
2023/12/30 07:10:59;;;;;;;17.65;2.92;;;8.80;99.90;;;9.00;76.66;100203.44;5012441;28;20054;-89
2023/12/30 07:13:28;;;;;;;20.35;3.22;;;8.80;99.90;;;8.91;76.97;100199.34;4998177;28;20047;-89
2023/12/30 07:15:55;;;;;;;16.15;2.65;;;8.70;99.90;;;8.84;77.33;100219.84;5007358;28;20053;-89
2023/12/30 07:18:23;;;;;;;18.05;3.10;;;8.70;99.90;;;8.93;77.23;100200.81;5020978;28;20057;-89
2023/12/30 07:20:50;;;;;;;17.40;3.60;;;8.80;99.90;;;8.97;76.83;100212.63;5020069;28;20081;-88
2023/12/30 07:23:18;;;;;;;18.23;2.92;;;8.80;99.90;;;8.96;76.81;100212.84;5008007;28;20052;-89
2023/12/30 07:25:47;;;;;;;20.75;2.90;;;8.80;99.90;;;8.91;76.53;100218.78;4985094;28;20148;-89
2023/12/30 07:28:15;;;;;;;16.50;3.42;;;8.70;99.90;;;8.89;76.37;100217.38;5000656;28;20441;-89
2023/12/30 07:30:44;;;;;;;17.38;3.20;;;8.70;99.90;;;8.88;76.20;100216.56;4976603;28;20048;-89
2023/12/30 07:33:11;;;;;;;15.90;3.00;;;8.70;99.90;;;8.84;76.41;100217.19;5017057;28;20068;-89
2023/12/30 07:35:39;;;;;;;22.95;3.28;;;8.70;99.90;;;8.84;76.48;100219.84;5007025;28;20104;-89
2023/12/30 07:38:06;;;;;;;17.33;3.03;;;8.70;99.90;;;8.84;76.33;100225.97;4996639;28;20057;-89
2023/12/30 07:40:34;;;;;;;16.83;2.67;;;8.70;99.90;;;8.89;76.68;100228.00;4996480;28;20038;-89
2023/12/30 07:43:01;;;;;;;14.93;2.55;;;8.70;99.90;;;8.91;76.20;100228.59;5002383;28;20057;-89
2023/12/30 07:45:28;;;;;;;15.70;2.70;;;8.70;99.90;;;8.85;76.39;100232.09;5010770;28;20042;-89
2023/12/30 07:47:57;;;;;;;15.60;3.00;;;8.70;99.90;;;8.90;76.79;100229.63;5016475;28;20088;-89
2023/12/30 07:50:25;;;;;;;14.32;2.97;;;8.70;99.90;;;8.82;77.01;100237.81;5016759;28;20117;-89
2023/12/30 07:52:52;;;;;;;15.05;2.53;;;8.70;99.90;;;8.92;77.03;100238.22;5013949;28;20046;-89
2023/12/30 07:55:20;;;;;;;11.88;2.60;;;8.80;99.90;;;8.98;76.88;100240.06;5014329;28;20128;-89
2023/12/30 07:57:47;;;;;;;14.43;2.50;;;8.90;99.90;;;8.93;76.75;100251.34;5016377;28;20128;-89
2023/12/30 08:00:16;;;;;;;14.20;3.08;;;8.80;99.90;;;8.90;77.02;100254.38;5015709;28;20130;-89
2023/12/30 08:02:44;;;;;;;18.73;3.28;;;8.80;99.90;;;8.93;76.91;100255.81;5014953;28;20053;-89
2023/12/30 08:05:13;;;;;;;17.88;2.88;;;8.90;99.90;;;8.89;77.02;100258.06;4986707;28;20047;-89
2023/12/30 08:07:40;;;;;;;18.40;2.92;;;8.80;99.90;;;8.90;77.09;100258.91;5016082;28;20048;-89
2023/12/30 08:10:11;;;;;;;19.42;3.33;;;8.80;99.90;;;8.94;77.05;100254.81;4983384;28;20046;-89
2023/12/30 08:12:38;;;;;;;18.17;3.03;;;8.90;99.90;;;8.86;76.97;100258.47;5001602;28;20050;-89
2023/12/30 08:15:09;;;;;;;13.30;2.58;;;8.80;99.90;;;8.91;77.40;100263.19;5012572;28;20097;-89
2023/12/30 08:17:36;;;;;;;16.15;3.13;;;8.80;99.90;;;8.95;77.10;100261.75;4997140;28;20576;-89
2023/12/30 08:20:06;;;;;;;15.68;2.95;;;8.80;99.90;;;8.93;77.37;100263.78;4995872;28;20141;-89
2023/12/30 08:22:36;;;;;;;12.80;2.33;;;8.80;99.90;;;8.98;77.02;100275.47;5003097;28;20041;-89
2023/12/30 08:25:03;;;;;;;15.30;2.85;;;8.90;99.90;;;8.95;76.64;100275.06;5015253;28;20424;-89
2023/12/30 08:27:31;;;;;;;14.60;2.60;;;8.90;99.90;;;8.95;76.84;100280.38;5016766;28;20046;-89
2023/12/30 08:29:58;;;;;;;14.55;2.22;;;8.80;99.90;;;8.99;77.02;100281.59;5009539;28;20112;-89
2023/12/30 08:32:26;;;;;;;13.70;2.83;;;8.90;99.90;;;9.00;77.17;100278.72;4995457;28;20065;-89
2023/12/30 08:34:54;;;;;;;17.48;3.03;;;8.90;99.90;;;9.08;77.09;100274.22;4997737;28;20077;-89
2023/12/30 08:37:24;;;;;;;15.05;2.15;;;8.90;99.90;;;9.07;76.90;100268.06;4995437;28;20058;-89
2023/12/30 08:39:53;;;;;;;16.80;2.55;;;8.90;99.90;;;9.12;76.85;100265.59;4996456;28;20062;-89
2023/12/30 08:42:21;;;;;;;17.48;3.10;;;9.00;99.90;;;9.09;76.83;100273.22;4998107;28;20053;-89
2023/12/30 08:44:54;;;;;;;11.00;2.72;;;9.00;99.90;;;9.09;77.01;100283.84;5012501;28;20046;-88
2023/12/30 08:47:21;;;;;;;16.67;2.78;;;9.00;99.90;;;8.93;76.85;100266.44;5022128;28;20049;-89
2023/12/30 08:49:49;;;;;;;17.10;2.60;;;9.00;99.90;;;8.95;77.28;100272.38;4996113;28;20101;-89
2023/12/30 08:52:16;;;;;;;20.48;2.60;;;8.90;99.90;;;8.90;77.21;100274.84;4993018;28;20042;-89
2023/12/30 08:54:44;;;;;;;14.98;3.10;;;9.00;99.90;;;8.88;77.33;100279.53;4998451;28;20077;-89
2023/12/30 08:57:13;;;;;;;16.30;2.85;;;8.90;99.90;;;8.91;77.57;100284.47;4997931;28;20046;-89
2023/12/30 08:59:41;;;;;;;19.58;3.33;;;8.90;99.90;;;8.88;77.29;100284.84;5014051;28;20504;-89
2023/12/30 09:02:09;;;;;;;21.05;3.28;;;8.90;99.90;;;8.92;77.66;100294.88;4981826;28;20061;-89
2023/12/30 09:04:36;;;;;;;11.48;3.03;;;9.00;99.90;;;9.00;77.74;100293.88;4998436;28;20047;-89
2023/12/30 09:07:04;;;;;;;14.55;2.97;;;8.90;99.90;;;9.08;77.62;100290.16;4961994;28;20580;-89
2023/12/30 09:09:33;;;;;;;12.93;2.80;;;9.00;99.90;;;8.98;77.51;100298.59;4994880;28;20054;-89
2023/12/30 09:12:00;;;;;;;13.73;3.00;;;9.00;99.90;;;9.00;77.24;100305.31;4978248;28;20129;-89
2023/12/30 09:14:29;;;;;;;10.80;2.72;;;9.00;99.90;;;9.01;77.66;100295.50;4995728;28;20097;-89
2023/12/30 09:17:04;;;;;;;15.68;2.78;;;9.00;99.90;;;9.04;77.75;100305.75;4994185;28;20042;-89
2023/12/30 09:19:31;;;;;;;17.30;3.03;;;9.00;99.90;;;9.00;77.73;100309.84;4995071;28;20046;-89
2023/12/30 09:21:59;;;;;;;18.42;3.60;;;9.10;99.90;;;8.99;78.18;100324.97;4978514;28;20046;-89
2023/12/30 09:24:26;;;;;;;15.95;2.95;;;9.00;99.90;;;9.06;78.34;100319.66;4995300;28;20042;-89
2023/12/30 09:26:53;;;;;;;10.85;2.70;;;9.10;99.90;;;9.08;77.79;100317.63;5010416;28;20046;-89
2023/12/30 09:29:21;;;;;;;17.77;4.18;;;9.10;99.90;;;9.06;77.94;100310.84;5010327;28;20054;-89
2023/12/30 09:31:50;;;;;;;18.70;3.05;;;9.10;99.90;;;9.01;77.47;100317.59;5000722;28;20038;-89
2023/12/30 09:34:18;;;;;;;19.50;4.38;;;9.10;99.90;;;8.98;77.87;100330.50;4996114;28;20100;-88
2023/12/30 09:36:46;;;;;;;19.95;4.22;;;9.00;99.90;;;8.89;77.90;100329.06;4997248;28;20050;-89
2023/12/30 09:39:13;;;;;;;17.88;4.28;;;9.00;99.90;;;8.92;78.46;100320.66;4994755;28;20509;-84
2023/12/30 09:41:42;;;;;;;18.77;4.25;;;9.00;99.90;;;8.98;78.85;100327.84;4997223;28;20043;-85
2023/12/30 09:44:09;;;;;;;23.00;5.32;;;9.00;99.90;;;8.97;78.65;100332.31;4995974;28;20046;-85
2023/12/30 09:46:38;;;;;;;18.95;3.95;;;9.00;99.90;;;9.03;78.29;100328.88;5010567;28;20070;-85
2023/12/30 09:49:10;;;;;;;15.25;3.63;;;9.10;99.90;;;8.99;77.87;100332.13;4996351;28;20050;-85
2023/12/30 09:51:37;;;;;;;29.42;6.32;;;9.10;99.90;;;9.00;78.00;100323.13;5012665;28;20043;-85
2023/12/30 09:54:05;;;;;;;23.42;5.95;;;9.10;99.90;;;9.00;78.31;100323.94;4994147;28;20050;-85
2023/12/30 09:56:34;;;;;;;20.58;5.47;;;9.10;99.90;;;9.02;78.46;100329.06;4995995;28;20046;-85
2023/12/30 09:59:01;;;;;;;20.48;5.00;;;9.10;99.90;;;9.06;78.46;100318.84;4996510;28;20505;-84
2023/12/30 10:01:30;;;;;;;21.95;4.60;;;9.20;99.90;;;9.06;78.31;100329.47;5012340;28;20506;-83
2023/12/30 10:03:57;;;;;;;17.95;4.60;;;9.20;99.90;;;9.11;78.43;100327.81;4996664;28;20038;-83
2023/12/30 10:06:29;;;;;;;21.80;3.90;;;9.20;99.90;;;9.14;78.31;100331.94;4982896;28;20042;-83
2023/12/30 10:08:59;;;;;;;17.50;3.03;;;9.20;99.90;;;9.19;78.77;100324.16;5001042;28;20118;-83
2023/12/30 10:11:25;;;;;;;22.35;3.92;;;9.20;99.90;;;9.24;78.48;100327.84;4999400;28;20567;-83
2023/12/30 10:13:55;;;;;;;17.15;3.90;;;9.30;99.90;;;9.22;78.15;100327.22;5016063;28;20065;-83
2023/12/30 10:16:25;;;;;;;17.70;4.00;;;9.30;99.90;;;9.14;77.90;100335.41;4999225;28;20046;-83
2023/12/30 10:18:55;;;;;;;23.83;4.13;;;9.30;99.90;;;9.15;78.09;100342.38;5014977;28;20069;-83
2023/12/30 10:21:23;;;;;;;19.80;3.90;;;9.30;99.90;;;9.18;78.40;100333.97;4996846;28;20528;-85
2023/12/30 10:23:58;;;;;;;14.82;3.88;;;9.30;99.90;;;9.25;78.69;100340.09;4997341;28;20039;-85